createdAt,value
2023-01-26T00:01:18.170Z,14.40
2023-01-26T00:03:48.856Z,14.30
2023-01-26T00:06:20.652Z,14.30
2023-01-26T00:08:54.060Z,14.30
2023-01-26T00:11:34.250Z,14.30
2023-01-26T00:14:04.117Z,14.30
2023-01-26T00:16:33.831Z,14.30
2023-01-26T00:19:05.113Z,14.30
2023-01-26T00:21:35.117Z,14.30
2023-01-26T00:24:06.265Z,14.30
2023-01-26T00:26:36.146Z,14.30
2023-01-26T00:29:05.733Z,14.30
2023-01-26T00:31:35.648Z,14.30
2023-01-26T00:34:05.406Z,14.40
2023-01-26T00:36:35.807Z,14.40
2023-01-26T00:39:06.072Z,14.40
2023-01-26T00:41:55.399Z,14.40
2023-01-26T00:44:25.286Z,14.50
2023-01-26T00:46:55.309Z,14.60
2023-01-26T00:49:25.180Z,14.60
2023-01-26T00:51:54.955Z,14.70
2023-01-26T00:54:25.668Z,14.70
2023-01-26T00:56:55.667Z,14.80
2023-01-26T00:59:25.859Z,14.90
2023-01-26T01:01:56.046Z,14.90
2023-01-26T01:04:26.119Z,15.00
2023-01-26T01:06:55.961Z,15.10
2023-01-26T01:09:26.260Z,15.10
2023-01-26T01:11:56.338Z,15.20
2023-01-26T01:14:26.228Z,15.20
2023-01-26T01:16:56.040Z,15.30
2023-01-26T01:19:26.190Z,15.40
2023-01-26T01:21:55.954Z,15.40
2023-01-26T01:24:25.832Z,15.50
2023-01-26T01:26:55.745Z,15.50
2023-01-26T01:29:25.649Z,15.60
2023-01-26T01:31:55.503Z,15.70
2023-01-26T01:34:25.405Z,15.70
2023-01-26T01:36:55.168Z,15.70
2023-01-26T01:39:24.995Z,15.80
2023-01-26T01:41:54.857Z,15.80
2023-01-26T01:44:26.473Z,15.90
2023-01-26T01:47:07.940Z,15.90
2023-01-26T01:49:46.197Z,16.00
2023-01-26T01:52:20.505Z,16.00
2023-01-26T01:55:03.769Z,16.10
2023-01-26T01:57:48.808Z,16.20
2023-01-26T02:00:23.249Z,16.30
2023-01-26T02:03:21.384Z,16.30
2023-01-26T02:06:10.814Z,16.40
2023-01-26T02:08:45.219Z,16.60
2023-01-26T02:11:22.882Z,16.70
2023-01-26T02:13:53.818Z,16.70
2023-01-26T02:16:23.975Z,16.80
2023-01-26T02:18:53.958Z,17.00
2023-01-26T02:21:26.055Z,17.10
2023-01-26T02:24:22.792Z,17.20
2023-01-26T02:26:52.860Z,17.30
2023-01-26T02:29:23.276Z,17.40
2023-01-26T02:31:55.413Z,17.60
2023-01-26T02:34:26.905Z,17.60
2023-01-26T02:37:03.736Z,17.70
2023-01-26T02:40:03.242Z,17.90
2023-01-26T02:42:43.747Z,18.00
2023-01-26T02:45:17.662Z,18.00
2023-01-26T02:47:47.386Z,18.10
2023-01-26T02:50:17.805Z,18.30
2023-01-26T02:52:47.486Z,18.40
2023-01-26T02:55:24.178Z,18.50
2023-01-26T02:57:56.366Z,18.60
2023-01-26T03:00:28.895Z,18.80
2023-01-26T03:03:01.692Z,18.90
2023-01-26T03:05:32.036Z,19.10
2023-01-26T03:08:02.842Z,19.20
2023-01-26T03:10:32.859Z,19.30
2023-01-26T03:13:02.781Z,19.40
2023-01-26T03:15:52.469Z,19.50
2023-01-26T03:18:43.966Z,19.60
2023-01-26T03:21:37.248Z,19.70
2023-01-26T03:24:27.504Z,19.80
2023-01-26T03:27:16.937Z,19.90
2023-01-26T03:29:46.855Z,20.00
2023-01-26T03:32:16.800Z,20.10
2023-01-26T03:34:46.926Z,20.10
2023-01-26T03:37:16.861Z,20.20
2023-01-26T03:40:06.392Z,20.30
2023-01-26T03:42:56.427Z,20.40
2023-01-26T03:45:45.837Z,20.50
2023-01-26T03:48:35.525Z,20.60
2023-01-26T03:51:25.083Z,20.80
2023-01-26T03:54:14.468Z,21.00
2023-01-26T03:56:46.366Z,21.10
2023-01-26T03:59:18.407Z,21.30
2023-01-26T04:02:08.994Z,21.40
2023-01-26T04:04:58.231Z,21.50
2023-01-26T04:07:47.649Z,21.70
2023-01-26T04:10:17.774Z,21.80
2023-01-26T04:12:48.768Z,21.80
2023-01-26T04:15:38.458Z,22.00
2023-01-26T04:18:29.350Z,22.10
2023-01-26T04:21:18.826Z,22.20
2023-01-26T04:23:48.548Z,22.30
2023-01-26T04:26:19.001Z,22.40
2023-01-26T04:28:48.769Z,22.50
2023-01-26T04:31:18.677Z,22.60
2023-01-26T04:33:48.462Z,22.70
2023-01-26T04:36:18.340Z,22.80
2023-01-26T04:38:48.074Z,22.90
2023-01-26T04:41:18.025Z,23.10
2023-01-26T04:43:48.032Z,23.20
2023-01-26T04:46:18.419Z,23.40
2023-01-26T04:48:48.115Z,23.50
2023-01-26T04:51:21.880Z,23.60
2023-01-26T04:53:52.502Z,23.70
2023-01-26T04:56:29.404Z,23.80
2023-01-26T04:59:06.532Z,23.90
2023-01-26T05:01:36.424Z,24.00
2023-01-26T05:04:07.546Z,24.10
2023-01-26T05:06:37.379Z,24.20
2023-01-26T05:09:07.459Z,24.30
2023-01-26T05:11:37.155Z,24.50
2023-01-26T05:14:07.019Z,24.50
2023-01-26T05:16:36.757Z,24.60
2023-01-26T05:19:06.569Z,24.60
2023-01-26T05:21:36.429Z,24.70
2023-01-26T05:24:06.177Z,24.80
2023-01-26T05:26:35.940Z,24.80
2023-01-26T05:29:06.220Z,24.90
2023-01-26T05:31:35.989Z,25.00
2023-01-26T05:34:05.681Z,25.00
2023-01-26T05:36:35.492Z,25.10
2023-01-26T05:39:05.348Z,25.20
2023-01-26T05:41:35.089Z,25.30
2023-01-26T05:44:04.988Z,25.40
2023-01-26T05:46:34.721Z,25.50
2023-01-26T05:49:04.565Z,25.60
2023-01-26T05:51:34.445Z,25.60
2023-01-26T05:54:04.358Z,25.70
2023-01-26T05:56:34.244Z,25.70
2023-01-26T05:59:04.751Z,25.80
2023-01-26T06:01:34.861Z,25.90
2023-01-26T06:04:05.068Z,26.00
2023-01-26T06:06:34.967Z,26.00
2023-01-26T06:09:04.745Z,26.10
2023-01-26T06:11:35.491Z,26.10
2023-01-26T06:14:05.659Z,26.20
2023-01-26T06:16:35.676Z,26.20
2023-01-26T06:19:05.769Z,26.30
2023-01-26T06:21:35.802Z,26.40
2023-01-26T06:24:06.271Z,26.50
2023-01-26T06:26:36.295Z,26.50
2023-01-26T06:29:06.230Z,26.50
2023-01-26T06:31:38.142Z,26.60
2023-01-26T06:34:08.028Z,26.70
2023-01-26T06:36:37.924Z,26.60
2023-01-26T06:39:07.788Z,26.70
2023-01-26T06:41:37.614Z,26.70
2023-01-26T06:44:11.161Z,26.70
2023-01-26T06:46:42.131Z,26.90
2023-01-26T06:49:12.489Z,26.90
2023-01-26T06:51:57.061Z,27.00
2023-01-26T06:54:26.730Z,27.10
2023-01-26T06:56:56.562Z,27.20
2023-01-26T06:59:27.675Z,27.10
2023-01-26T07:01:57.645Z,27.10
2023-01-26T07:04:29.347Z,27.20
2023-01-26T07:06:59.125Z,27.20
2023-01-26T07:09:28.909Z,27.30
2023-01-26T07:11:58.795Z,27.40
2023-01-26T07:14:28.603Z,27.40
2023-01-26T07:16:58.455Z,27.50
2023-01-26T07:19:28.405Z,27.50
2023-01-26T07:21:58.163Z,27.60
2023-01-26T07:24:28.173Z,27.70
2023-01-26T07:26:58.617Z,27.70
2023-01-26T07:29:28.380Z,27.80
2023-01-26T07:31:58.195Z,27.80
2023-01-26T07:34:28.146Z,27.90
2023-01-26T07:36:57.969Z,27.90
2023-01-26T07:39:28.633Z,28.00
2023-01-26T07:41:58.355Z,28.00
2023-01-26T07:44:28.151Z,28.00
2023-01-26T07:46:58.186Z,28.10
2023-01-26T07:49:27.981Z,28.20
2023-01-26T07:51:57.792Z,28.20
2023-01-26T07:54:27.605Z,28.20
2023-01-26T07:56:57.688Z,28.20
2023-01-26T07:59:28.210Z,28.30
2023-01-26T08:01:58.425Z,28.40
2023-01-26T08:04:28.397Z,28.40
2023-01-26T08:06:58.337Z,28.40
2023-01-26T08:09:28.462Z,28.40
2023-01-26T08:12:00.990Z,28.40
2023-01-26T08:14:45.115Z,28.50
2023-01-26T08:17:19.119Z,28.50
2023-01-26T08:19:49.358Z,28.50
2023-01-26T08:22:19.141Z,28.50
2023-01-26T08:24:49.008Z,28.50
2023-01-26T08:27:19.026Z,28.50
2023-01-26T08:29:48.776Z,28.50
2023-01-26T08:32:18.695Z,28.50
2023-01-26T08:34:48.647Z,28.50
2023-01-26T08:37:18.426Z,28.50
2023-01-26T08:39:48.291Z,28.50
2023-01-26T08:42:18.188Z,28.50
2023-01-26T08:44:47.911Z,28.50
2023-01-26T08:47:17.613Z,28.50
2023-01-26T08:49:47.364Z,28.50
2023-01-26T08:52:17.214Z,28.60
2023-01-26T08:54:46.809Z,28.50
2023-01-26T08:57:16.635Z,28.40
2023-01-26T08:59:46.486Z,28.50
2023-01-26T09:02:23.007Z,28.50
2023-01-26T09:04:53.101Z,28.50
2023-01-26T09:07:23.212Z,28.50
2023-01-26T09:09:53.087Z,28.60
2023-01-26T09:12:22.909Z,28.50
2023-01-26T09:14:52.885Z,28.50
2023-01-26T09:17:22.617Z,28.60
2023-01-26T09:19:52.489Z,28.60
2023-01-26T09:22:22.418Z,28.60
2023-01-26T09:24:52.470Z,28.60
2023-01-26T09:27:22.445Z,28.60
2023-01-26T09:29:52.331Z,28.60
2023-01-26T09:32:22.612Z,28.50
2023-01-26T09:34:52.408Z,28.60
2023-01-26T09:37:22.367Z,28.50
2023-01-26T09:39:52.460Z,28.50
2023-01-26T09:42:38.336Z,28.50
2023-01-26T09:45:28.852Z,28.50
2023-01-26T09:48:37.781Z,28.50
2023-01-26T09:51:24.902Z,28.50
2023-01-26T09:54:01.690Z,28.40
2023-01-26T09:56:34.748Z,28.40
2023-01-26T09:59:29.339Z,28.30
2023-01-26T10:02:39.765Z,28.30
2023-01-26T10:05:26.596Z,28.30
2023-01-26T10:07:56.507Z,28.20
2023-01-26T10:10:52.233Z,28.20
2023-01-26T10:13:24.221Z,28.10
2023-01-26T10:16:00.889Z,28.10
2023-01-26T10:18:43.120Z,28.10
2023-01-26T10:21:14.188Z,28.00
2023-01-26T10:23:50.521Z,28.00
2023-01-26T10:26:23.522Z,27.90
2023-01-26T10:28:56.641Z,27.90
2023-01-26T10:31:32.823Z,27.80
2023-01-26T10:34:23.899Z,27.80
2023-01-26T10:36:55.645Z,27.70
2023-01-26T10:39:25.518Z,27.70
2023-01-26T10:42:05.782Z,27.60
2023-01-26T10:44:41.856Z,27.50
2023-01-26T10:47:23.172Z,27.40
2023-01-26T10:49:53.271Z,27.30
2023-01-26T10:52:27.387Z,27.20
2023-01-26T10:55:15.041Z,27.00
2023-01-26T10:57:45.422Z,27.00
2023-01-26T11:00:35.156Z,26.90
2023-01-26T11:03:20.810Z,26.70
2023-01-26T11:06:16.463Z,26.60
2023-01-26T11:08:46.977Z,26.50
2023-01-26T11:11:36.347Z,26.40
2023-01-26T11:14:20.438Z,26.30
2023-01-26T11:17:14.832Z,26.20
2023-01-26T11:20:23.737Z,26.10
2023-01-26T11:23:08.663Z,25.90
2023-01-26T11:26:01.204Z,25.80
2023-01-26T11:28:49.344Z,25.70
2023-01-26T11:31:39.195Z,25.50
2023-01-26T11:34:42.259Z,25.40
2023-01-26T11:37:51.157Z,25.30
2023-01-26T11:41:01.012Z,25.20
2023-01-26T11:44:02.587Z,25.00
2023-01-26T11:47:11.430Z,24.90
2023-01-26T11:50:20.322Z,24.80
2023-01-26T11:53:24.284Z,24.70
2023-01-26T11:56:27.820Z,24.50
2023-01-26T11:59:07.798Z,24.30
2023-01-26T12:01:48.451Z,24.20
2023-01-26T12:04:24.369Z,24.10
2023-01-26T12:07:13.076Z,24.00
2023-01-26T12:09:54.732Z,24.00
2023-01-26T12:12:39.592Z,23.80
2023-01-26T12:15:19.945Z,23.70
2023-01-26T12:18:03.534Z,23.70
2023-01-26T12:21:00.137Z,23.60
2023-01-26T12:23:50.153Z,23.50
2023-01-26T12:26:23.498Z,23.40
2023-01-26T12:29:26.260Z,23.30
2023-01-26T12:32:12.401Z,23.20
2023-01-26T12:34:42.510Z,23.10
2023-01-26T12:37:44.529Z,23.00
2023-01-26T12:40:41.619Z,22.90
2023-01-26T12:43:43.697Z,22.80
2023-01-26T12:46:15.070Z,22.70
2023-01-26T12:48:51.051Z,22.60
2023-01-26T12:51:28.854Z,22.50
2023-01-26T12:54:22.946Z,22.40
2023-01-26T12:56:57.257Z,22.40
2023-01-26T12:59:48.196Z,22.30
2023-01-26T13:02:34.214Z,22.20
2023-01-26T13:05:06.802Z,22.10
2023-01-26T13:07:42.578Z,22.10
2023-01-26T13:10:28.143Z,22.00
2023-01-26T13:13:29.956Z,21.90
2023-01-26T13:16:35.322Z,21.80
2023-01-26T13:19:06.193Z,21.80
2023-01-26T13:21:47.519Z,21.70
2023-01-26T13:24:44.452Z,21.60
2023-01-26T13:27:36.575Z,21.60
2023-01-26T13:30:26.749Z,21.50
2023-01-26T13:33:24.766Z,21.40
2023-01-26T13:35:55.727Z,21.40
2023-01-26T13:38:46.594Z,21.30
2023-01-26T13:41:22.449Z,21.30
2023-01-26T13:43:58.176Z,21.20
2023-01-26T13:46:54.604Z,21.10
2023-01-26T13:49:48.684Z,21.10
2023-01-26T13:52:23.719Z,21.00
2023-01-26T13:54:56.470Z,20.90
2023-01-26T13:57:32.190Z,20.90
2023-01-26T14:00:03.370Z,20.80
2023-01-26T14:02:38.829Z,20.80
2023-01-26T14:05:10.577Z,20.80
2023-01-26T14:07:51.753Z,20.80
2023-01-26T14:10:26.001Z,20.70
2023-01-26T14:13:00.677Z,20.70
2023-01-26T14:15:33.512Z,20.60
2023-01-26T14:18:06.983Z,20.60
2023-01-26T14:20:41.127Z,20.60
2023-01-26T14:23:23.082Z,20.50
2023-01-26T14:26:23.338Z,20.50
2023-01-26T14:28:53.503Z,20.50
2023-01-26T14:31:26.341Z,20.30
2023-01-26T14:34:00.442Z,20.40
2023-01-26T14:36:36.603Z,20.30
2023-01-26T14:39:22.630Z,20.30
2023-01-26T14:41:52.982Z,20.20
2023-01-26T14:44:22.699Z,20.10
2023-01-26T14:47:05.041Z,20.10
2023-01-26T14:49:47.294Z,20.10
2023-01-26T14:52:29.155Z,20.00
2023-01-26T14:55:05.898Z,20.00
2023-01-26T14:57:35.989Z,20.00
2023-01-26T15:00:11.730Z,20.00
2023-01-26T15:02:46.368Z,20.00
2023-01-26T15:05:24.205Z,19.90
2023-01-26T15:08:08.068Z,19.90
2023-01-26T15:10:45.991Z,19.90
2023-01-26T15:13:26.438Z,19.90
2023-01-26T15:16:09.848Z,19.90
2023-01-26T15:18:39.630Z,19.80
2023-01-26T15:21:21.157Z,19.80
2023-01-26T15:23:56.998Z,19.80
2023-01-26T15:26:33.933Z,19.80
2023-01-26T15:29:06.445Z,19.80
2023-01-26T15:31:39.760Z,19.80
2023-01-26T15:34:29.453Z,19.80
2023-01-26T15:37:02.563Z,19.80
2023-01-26T15:39:32.323Z,19.70
2023-01-26T15:42:23.581Z,19.70
2023-01-26T15:44:53.203Z,19.70
2023-01-26T15:47:23.051Z,19.60
2023-01-26T15:49:52.814Z,19.60
2023-01-26T15:52:27.203Z,19.60
2023-01-26T15:54:57.100Z,19.60
2023-01-26T15:57:26.827Z,19.50
2023-01-26T15:59:56.455Z,19.40
2023-01-26T16:02:26.341Z,19.40
2023-01-26T16:04:56.128Z,19.40
2023-01-26T16:07:27.758Z,19.30
2023-01-26T16:10:00.152Z,19.20
2023-01-26T16:12:32.342Z,19.20
2023-01-26T16:15:02.775Z,19.10
2023-01-26T16:17:32.619Z,19.10
2023-01-26T16:20:02.499Z,19.00
2023-01-26T16:22:32.199Z,19.00
2023-01-26T16:25:02.030Z,18.90
2023-01-26T16:27:31.802Z,18.80
2023-01-26T16:30:01.463Z,18.80
2023-01-26T16:32:32.053Z,18.80
2023-01-26T16:35:01.842Z,18.70
2023-01-26T16:37:31.800Z,18.60
2023-01-26T16:40:01.576Z,18.60
2023-01-26T16:42:31.359Z,18.60
2023-01-26T16:45:01.329Z,18.50
2023-01-26T16:47:31.212Z,18.50
2023-01-26T16:50:01.622Z,18.50
2023-01-26T16:52:31.578Z,18.50
2023-01-26T16:55:01.385Z,18.50
2023-01-26T16:57:31.289Z,18.40
2023-01-26T17:00:01.169Z,18.40
2023-01-26T17:02:35.570Z,18.30
2023-01-26T17:05:05.366Z,18.30
2023-01-26T17:07:35.269Z,18.30
2023-01-26T17:10:05.150Z,18.20
2023-01-26T17:12:35.087Z,18.20
2023-01-26T17:15:05.780Z,18.10
2023-01-26T17:17:35.706Z,18.10
2023-01-26T17:20:18.415Z,18.00
2023-01-26T17:22:50.274Z,17.90
2023-01-26T17:25:20.968Z,17.80
2023-01-26T17:27:51.690Z,17.60
2023-01-26T17:30:21.655Z,17.50
2023-01-26T17:32:51.402Z,17.40
2023-01-26T17:35:21.397Z,17.30
2023-01-26T17:37:51.648Z,17.30
2023-01-26T17:40:21.483Z,17.30
2023-01-26T17:42:51.283Z,17.30
2023-01-26T17:45:21.013Z,17.30
2023-01-26T17:47:50.837Z,17.30
2023-01-26T17:50:20.804Z,17.30
2023-01-26T17:52:50.541Z,17.30
2023-01-26T17:55:20.373Z,17.30
2023-01-26T17:57:50.323Z,17.30
2023-01-26T18:00:20.793Z,17.40
2023-01-26T18:02:50.652Z,17.30
2023-01-26T18:05:20.433Z,17.30
2023-01-26T18:07:50.973Z,17.30
2023-01-26T18:10:20.879Z,17.30
2023-01-26T18:12:51.678Z,17.30
2023-01-26T18:15:21.482Z,17.30
2023-01-26T18:17:51.279Z,17.30
2023-01-26T18:20:20.915Z,17.30
2023-01-26T18:22:50.664Z,17.30
2023-01-26T18:25:22.652Z,17.20
2023-01-26T18:27:52.392Z,17.20
2023-01-26T18:30:22.441Z,17.20
2023-01-26T18:32:52.221Z,17.20
2023-01-26T18:35:22.002Z,17.20
2023-01-26T18:37:51.953Z,17.20
2023-01-26T18:40:22.289Z,17.10
2023-01-26T18:42:55.460Z,17.10
2023-01-26T18:45:25.754Z,17.10
2023-01-26T18:47:55.765Z,17.10
2023-01-26T18:50:25.709Z,17.10
2023-01-26T18:52:55.532Z,17.00
2023-01-26T18:55:25.221Z,17.00
2023-01-26T18:57:56.876Z,16.90
2023-01-26T19:00:26.715Z,16.90
2023-01-26T19:02:56.650Z,16.90
2023-01-26T19:05:26.523Z,16.80
2023-01-26T19:07:57.132Z,16.80
2023-01-26T19:10:26.880Z,16.80
2023-01-26T19:12:56.788Z,16.80
2023-01-26T19:15:26.492Z,16.80
2023-01-26T19:17:56.254Z,16.80
2023-01-26T19:20:26.219Z,16.80
2023-01-26T19:22:59.164Z,16.80
2023-01-26T19:25:29.070Z,16.80
2023-01-26T19:27:58.807Z,16.80
2023-01-26T19:30:28.745Z,16.80
2023-01-26T19:33:18.066Z,16.80
2023-01-26T19:35:48.009Z,16.70
2023-01-26T19:38:18.186Z,16.70
2023-01-26T19:40:49.436Z,16.70
2023-01-26T19:43:20.884Z,16.70
2023-01-26T19:45:55.004Z,16.70
2023-01-26T19:48:29.812Z,16.60
2023-01-26T19:51:04.779Z,16.60
2023-01-26T19:53:36.080Z,16.60
2023-01-26T19:56:11.432Z,16.60
2023-01-26T19:58:41.872Z,16.60
2023-01-26T20:01:14.514Z,16.50
2023-01-26T20:03:44.377Z,16.60
2023-01-26T20:06:18.416Z,16.50
2023-01-26T20:08:49.443Z,16.50
2023-01-26T20:11:20.314Z,16.50
2023-01-26T20:13:50.058Z,16.50
2023-01-26T20:16:19.852Z,16.40
2023-01-26T20:18:49.555Z,16.40
2023-01-26T20:21:19.429Z,16.40
2023-01-26T20:23:54.981Z,16.30
2023-01-26T20:26:27.647Z,16.30
2023-01-26T20:28:58.367Z,16.30
2023-01-26T20:31:29.314Z,16.30
2023-01-26T20:34:00.122Z,16.20
2023-01-26T20:36:31.264Z,16.20
2023-01-26T20:39:01.244Z,16.20
2023-01-26T20:41:33.145Z,16.20
2023-01-26T20:44:06.057Z,16.20
2023-01-26T20:46:42.994Z,16.20
2023-01-26T20:49:16.315Z,16.10
2023-01-26T20:51:47.591Z,16.10
2023-01-26T20:54:18.921Z,16.00
2023-01-26T20:56:49.863Z,16.00
2023-01-26T20:59:24.465Z,16.00
2023-01-26T21:01:55.312Z,16.00
2023-01-26T21:04:25.412Z,16.00
2023-01-26T21:06:57.069Z,15.90
2023-01-26T21:09:27.836Z,15.90
2023-01-26T21:11:57.573Z,15.90
2023-01-26T21:14:27.450Z,15.90
2023-01-26T21:16:57.521Z,15.90
2023-01-26T21:19:27.447Z,15.90
2023-01-26T21:21:57.368Z,15.90
2023-01-26T21:24:27.458Z,15.90
2023-01-26T21:26:57.344Z,15.90
2023-01-26T21:29:27.167Z,15.90
2023-01-26T21:31:56.855Z,15.90
2023-01-26T21:34:26.541Z,15.80
2023-01-26T21:36:56.464Z,15.90
2023-01-26T21:39:26.365Z,15.80
2023-01-26T21:41:59.414Z,15.80
2023-01-26T21:44:31.694Z,15.80
2023-01-26T21:47:05.433Z,15.80
2023-01-26T21:49:35.192Z,15.80
2023-01-26T21:52:24.600Z,15.80
2023-01-26T21:54:54.513Z,15.70
2023-01-26T21:57:43.843Z,15.70
2023-01-26T22:00:14.201Z,15.80
2023-01-26T22:02:43.952Z,15.70
2023-01-26T22:05:13.766Z,15.70
2023-01-26T22:07:43.722Z,15.80
2023-01-26T22:10:15.113Z,15.70
2023-01-26T22:12:44.950Z,15.70
2023-01-26T22:15:15.663Z,15.70
2023-01-26T22:17:45.639Z,15.70
2023-01-26T22:20:15.621Z,15.60
2023-01-26T22:22:45.510Z,15.60
2023-01-26T22:25:15.483Z,15.60
2023-01-26T22:27:45.235Z,15.60
2023-01-26T22:30:15.393Z,15.60
2023-01-26T22:32:45.674Z,15.50
2023-01-26T22:35:15.484Z,15.50
2023-01-26T22:37:45.363Z,15.50
2023-01-26T22:40:16.223Z,15.50
2023-01-26T22:42:46.132Z,15.40
2023-01-26T22:45:16.463Z,15.40
2023-01-26T22:47:46.267Z,15.30
2023-01-26T22:50:17.285Z,15.40
2023-01-26T22:52:47.050Z,15.30
2023-01-26T22:55:16.882Z,15.40
2023-01-26T22:57:47.195Z,15.40
2023-01-26T23:00:17.274Z,15.30
2023-01-26T23:02:47.159Z,15.40
2023-01-26T23:05:17.069Z,15.30
2023-01-26T23:07:47.900Z,15.30
2023-01-26T23:10:19.121Z,15.30
2023-01-26T23:12:48.858Z,15.30
2023-01-26T23:15:18.778Z,15.30
2023-01-26T23:17:52.425Z,15.30
2023-01-26T23:20:23.978Z,15.30
2023-01-26T23:22:53.910Z,15.20
2023-01-26T23:25:43.206Z,15.30
2023-01-26T23:28:13.051Z,15.20
2023-01-26T23:30:42.829Z,15.20
2023-01-26T23:33:12.689Z,15.20
2023-01-26T23:35:42.614Z,15.20
2023-01-26T23:38:13.153Z,15.30
2023-01-26T23:40:43.696Z,15.30
2023-01-26T23:43:17.128Z,15.30
2023-01-26T23:45:49.044Z,15.30
2023-01-26T23:48:19.276Z,15.30
2023-01-26T23:50:49.079Z,15.30
2023-01-26T23:53:18.913Z,15.40
2023-01-26T23:55:49.548Z,15.30
2023-01-26T23:58:19.288Z,15.40
